EKSN/CNL METAR and TAF weather

Enter ICAO airport designator
Station Type Date Time Source
EKSN METAR 2020/03/27 12:50 UTC NOAA

EKSN 271250Z 25005KT CAVOK 11/M03 Q1028


Station Type Date Time Source
EKSN Decoded METAR 2020/03/27 12:50 UTC NOAA

Sindal Flyveplads, Denmark (EKSN) 57-30N 010-13E 28M
Mar 27, 2020 - 08:50 AM EDT / 2020.03.27 1250 UTC
Wind: from the WSW (250 degrees) at 6 MPH (5 KT):0
Visibility: greater than 7 mile(s):0
Temperature: 51 F (11 C)
Dew Point: 26 F (-3 C)
Relative Humidity: 37%
Pressure (altimeter): 30.36 in. Hg (1028 hPa)
ob: EKSN 271250Z 25005KT CAVOK 11/M03 Q1028
cycle: 13

Station Type Date Time Source
EKSN TAF UTC NOAA

Error!

Example: see airport list